sensor_id;sensor_type;location;lat;lon;timestamp;temperature;humidity
81951;DHT22;71452;52.562;5.642;2024-01-10T00:02:19;-2.20;66.00
81951;DHT22;71452;52.562;5.642;2024-01-10T00:04:48;-2.20;65.80
81951;DHT22;71452;52.562;5.642;2024-01-10T00:07:17;-2.20;65.90
81951;DHT22;71452;52.562;5.642;2024-01-10T00:09:46;-2.20;65.80
81951;DHT22;71452;52.562;5.642;2024-01-10T00:12:18;-2.20;65.70
81951;DHT22;71452;52.562;5.642;2024-01-10T00:14:47;-2.20;65.80
81951;DHT22;71452;52.562;5.642;2024-01-10T00:17:16;-2.20;65.80
81951;DHT22;71452;52.562;5.642;2024-01-10T00:19:46;-2.20;65.90
81951;DHT22;71452;52.562;5.642;2024-01-10T00:22:15;-2.20;65.80
81951;DHT22;71452;52.562;5.642;2024-01-10T00:24:44;-2.20;65.80
81951;DHT22;71452;52.562;5.642;2024-01-10T00:27:14;-2.20;65.80
81951;DHT22;71452;52.562;5.642;2024-01-10T00:29:45;-2.10;65.50
81951;DHT22;71452;52.562;5.642;2024-01-10T00:32:14;-2.10;65.70
81951;DHT22;71452;52.562;5.642;2024-01-10T00:34:43;-2.10;65.50
81951;DHT22;71452;52.562;5.642;2024-01-10T00:37:13;-2.10;65.30
81951;DHT22;71452;52.562;5.642;2024-01-10T00:39:42;-2.10;65.60
81951;DHT22;71452;52.562;5.642;2024-01-10T00:42:11;-2.10;65.50
81951;DHT22;71452;52.562;5.642;2024-01-10T00:44:40;-2.10;65.40
81951;DHT22;71452;52.562;5.642;2024-01-10T00:47:12;-2.10;65.50
81951;DHT22;71452;52.562;5.642;2024-01-10T00:49:41;-2.20;65.70
81951;DHT22;71452;52.562;5.642;2024-01-10T00:52:11;-2.20;65.80
81951;DHT22;71452;52.562;5.642;2024-01-10T00:54:40;-2.10;65.50
81951;DHT22;71452;52.562;5.642;2024-01-10T00:57:10;-2.20;65.70
81951;DHT22;71452;52.562;5.642;2024-01-10T00:59:40;-2.10;65.40
81951;DHT22;71452;52.562;5.642;2024-01-10T01:02:12;-2.10;64.90
81951;DHT22;71452;52.562;5.642;2024-01-10T01:04:41;-2.20;65.20
81951;DHT22;71452;52.562;5.642;2024-01-10T01:07:10;-2.20;65.50
81951;DHT22;71452;52.562;5.642;2024-01-10T01:09:39;-2.30;65.60
81951;DHT22;71452;52.562;5.642;2024-01-10T01:12:08;-2.30;65.50
81951;DHT22;71452;52.562;5.642;2024-01-10T01:14:37;-2.20;65.50
81951;DHT22;71452;52.562;5.642;2024-01-10T01:17:06;-2.30;65.70
81951;DHT22;71452;52.562;5.642;2024-01-10T01:19:38;-2.40;65.90
81951;DHT22;71452;52.562;5.642;2024-01-10T01:22:07;-2.40;65.90
81951;DHT22;71452;52.562;5.642;2024-01-10T01:24:36;-2.40;66.10
81951;DHT22;71452;52.562;5.642;2024-01-10T01:27:05;-2.40;66.00
81951;DHT22;71452;52.562;5.642;2024-01-10T01:29:35;-2.30;65.90
81951;DHT22;71452;52.562;5.642;2024-01-10T01:32:04;-2.30;65.80
81951;DHT22;71452;52.562;5.642;2024-01-10T01:34:33;-2.30;65.70
81951;DHT22;71452;52.562;5.642;2024-01-10T01:37:05;-2.20;65.40
81951;DHT22;71452;52.562;5.642;2024-01-10T01:39:35;-2.20;65.40
81951;DHT22;71452;52.562;5.642;2024-01-10T01:42:05;-2.30;65.30
81951;DHT22;71452;52.562;5.642;2024-01-10T01:44:34;-2.20;65.30
81951;DHT22;71452;52.562;5.642;2024-01-10T01:47:04;-2.30;65.40
81951;DHT22;71452;52.562;5.642;2024-01-10T01:49:33;-2.40;65.60
81951;DHT22;71452;52.562;5.642;2024-01-10T01:52:05;-2.30;65.50
81951;DHT22;71452;52.562;5.642;2024-01-10T01:54:35;-2.30;65.60
81951;DHT22;71452;52.562;5.642;2024-01-10T01:57:04;-2.30;65.60
81951;DHT22;71452;52.562;5.642;2024-01-10T01:59:34;-2.20;65.30
81951;DHT22;71452;52.562;5.642;2024-01-10T02:02:04;-2.20;65.20
81951;DHT22;71452;52.562;5.642;2024-01-10T02:04:34;-2.30;65.30
81951;DHT22;71452;52.562;5.642;2024-01-10T02:07:06;-2.30;65.20
81951;DHT22;71452;52.562;5.642;2024-01-10T02:09:35;-2.30;65.20
81951;DHT22;71452;52.562;5.642;2024-01-10T02:12:05;-2.30;65.20
81951;DHT22;71452;52.562;5.642;2024-01-10T02:14:36;-2.40;65.40
81951;DHT22;71452;52.562;5.642;2024-01-10T02:17:05;-2.40;65.60
81951;DHT22;71452;52.562;5.642;2024-01-10T02:19:34;-2.40;65.50
81951;DHT22;71452;52.562;5.642;2024-01-10T02:22:06;-2.40;65.60
81951;DHT22;71452;52.562;5.642;2024-01-10T02:24:37;-2.40;65.50
81951;DHT22;71452;52.562;5.642;2024-01-10T02:27:09;-2.40;65.40
81951;DHT22;71452;52.562;5.642;2024-01-10T02:29:38;-2.40;65.30
81951;DHT22;71452;52.562;5.642;2024-01-10T02:32:07;-2.40;65.30
81951;DHT22;71452;52.562;5.642;2024-01-10T02:34:36;-2.30;64.80
81951;DHT22;71452;52.562;5.642;2024-01-10T02:37:05;-2.20;64.40
81951;DHT22;71452;52.562;5.642;2024-01-10T02:39:34;-2.30;64.10
81951;DHT22;71452;52.562;5.642;2024-01-10T02:42:03;-2.30;63.80
81951;DHT22;71452;52.562;5.642;2024-01-10T02:44:35;-2.30;63.90
81951;DHT22;71452;52.562;5.642;2024-01-10T02:47:05;-2.40;64.10
81951;DHT22;71452;52.562;5.642;2024-01-10T02:49:35;-2.10;63.70
81951;DHT22;71452;52.562;5.642;2024-01-10T02:52:05;-2.20;63.80
81951;DHT22;71452;52.562;5.642;2024-01-10T02:54:34;-2.10;63.70
81951;DHT22;71452;52.562;5.642;2024-01-10T02:57:03;-2.30;64.30
81951;DHT22;71452;52.562;5.642;2024-01-10T02:59:35;-2.40;64.30
81951;DHT22;71452;52.562;5.642;2024-01-10T03:02:04;-2.50;63.90
81951;DHT22;71452;52.562;5.642;2024-01-10T03:04:33;-2.50;64.00
81951;DHT22;71452;52.562;5.642;2024-01-10T03:07:03;-2.50;64.30
81951;DHT22;71452;52.562;5.642;2024-01-10T03:09:32;-2.50;64.70
81951;DHT22;71452;52.562;5.642;2024-01-10T03:12:01;-2.60;65.10
81951;DHT22;71452;52.562;5.642;2024-01-10T03:14:30;-2.60;65.30
81951;DHT22;71452;52.562;5.642;2024-01-10T03:17:03;-2.60;65.30
81951;DHT22;71452;52.562;5.642;2024-01-10T03:19:32;-2.60;65.30
81951;DHT22;71452;52.562;5.642;2024-01-10T03:22:03;-2.70;65.40
81951;DHT22;71452;52.562;5.642;2024-01-10T03:24:32;-2.60;65.10
81951;DHT22;71452;52.562;5.642;2024-01-10T03:27:02;-2.70;65.10
81951;DHT22;71452;52.562;5.642;2024-01-10T03:29:31;-2.70;65.40
81951;DHT22;71452;52.562;5.642;2024-01-10T03:32:04;-2.90;65.50
81951;DHT22;71452;52.562;5.642;2024-01-10T03:34:33;-2.90;65.50
81951;DHT22;71452;52.562;5.642;2024-01-10T03:37:02;-2.80;65.50
81951;DHT22;71452;52.562;5.642;2024-01-10T03:39:31;-2.80;65.50
81951;DHT22;71452;52.562;5.642;2024-01-10T03:42:01;-2.90;65.60
81951;DHT22;71452;52.562;5.642;2024-01-10T03:44:30;-2.90;65.80
81951;DHT22;71452;52.562;5.642;2024-01-10T03:46:59;-3.00;66.00
81951;DHT22;71452;52.562;5.642;2024-01-10T03:49:31;-3.00;66.20
81951;DHT22;71452;52.562;5.642;2024-01-10T03:52:00;-3.00;66.20
81951;DHT22;71452;52.562;5.642;2024-01-10T03:54:29;-3.00;66.20
81951;DHT22;71452;52.562;5.642;2024-01-10T03:56:59;-3.10;66.40
81951;DHT22;71452;52.562;5.642;2024-01-10T03:59:29;-3.00;66.40
81951;DHT22;71452;52.562;5.642;2024-01-10T04:01:59;-3.10;66.20
81951;DHT22;71452;52.562;5.642;2024-01-10T04:04:30;-3.10;66.20
81951;DHT22;71452;52.562;5.642;2024-01-10T04:07:00;-3.00;66.10
81951;DHT22;71452;52.562;5.642;2024-01-10T04:09:29;-3.00;66.20
81951;DHT22;71452;52.562;5.642;2024-01-10T04:11:58;-3.10;66.20
81951;DHT22;71452;52.562;5.642;2024-01-10T04:14:28;-3.10;66.20
81951;DHT22;71452;52.562;5.642;2024-01-10T04:16:57;-3.00;66.00
81951;DHT22;71452;52.562;5.642;2024-01-10T04:19:27;-3.00;65.90
81951;DHT22;71452;52.562;5.642;2024-01-10T04:21:59;-3.10;66.00
81951;DHT22;71452;52.562;5.642;2024-01-10T04:24:28;-3.10;66.00
81951;DHT22;71452;52.562;5.642;2024-01-10T04:26:57;-3.00;65.90
81951;DHT22;71452;52.562;5.642;2024-01-10T04:29:27;-3.00;65.60
81951;DHT22;71452;52.562;5.642;2024-01-10T04:31:56;-3.00;65.70
81951;DHT22;71452;52.562;5.642;2024-01-10T04:34:25;-3.10;65.70
81951;DHT22;71452;52.562;5.642;2024-01-10T04:36:54;-3.10;65.80
81951;DHT22;71452;52.562;5.642;2024-01-10T04:39:26;-3.10;65.70
81951;DHT22;71452;52.562;5.642;2024-01-10T04:41:55;-3.00;65.70
81951;DHT22;71452;52.562;5.642;2024-01-10T04:44:24;-3.00;65.70
81951;DHT22;71452;52.562;5.642;2024-01-10T04:46:53;-3.00;65.70
81951;DHT22;71452;52.562;5.642;2024-01-10T04:49:23;-3.00;65.70
81951;DHT22;71452;52.562;5.642;2024-01-10T04:51:52;-3.00;65.60
81951;DHT22;71452;52.562;5.642;2024-01-10T04:54:21;-3.00;65.40
81951;DHT22;71452;52.562;5.642;2024-01-10T04:56:53;-3.00;65.30
81951;DHT22;71452;52.562;5.642;2024-01-10T04:59:22;-3.10;65.40
81951;DHT22;71452;52.562;5.642;2024-01-10T05:01:51;-3.10;64.90
81951;DHT22;71452;52.562;5.642;2024-01-10T05:04:21;-3.10;64.80
81951;DHT22;71452;52.562;5.642;2024-01-10T05:06:50;-3.20;64.40
81951;DHT22;71452;52.562;5.642;2024-01-10T05:09:19;-3.10;63.90
81951;DHT22;71452;52.562;5.642;2024-01-10T05:11:48;-3.10;64.00
81951;DHT22;71452;52.562;5.642;2024-01-10T05:14:20;-3.00;63.40
81951;DHT22;71452;52.562;5.642;2024-01-10T05:16:50;-3.00;63.50
81951;DHT22;71452;52.562;5.642;2024-01-10T05:19:19;-2.90;63.30
81951;DHT22;71452;52.562;5.642;2024-01-10T05:21:48;-3.00;63.40
81951;DHT22;71452;52.562;5.642;2024-01-10T05:24:18;-3.00;63.40
81951;DHT22;71452;52.562;5.642;2024-01-10T05:26:47;-3.00;63.40
81951;DHT22;71452;52.562;5.642;2024-01-10T05:29:20;-2.90;63.30
81951;DHT22;71452;52.562;5.642;2024-01-10T05:31:50;-3.00;63.20
81951;DHT22;71452;52.562;5.642;2024-01-10T05:34:19;-3.00;62.90
81951;DHT22;71452;52.562;5.642;2024-01-10T05:36:48;-3.00;63.00
81951;DHT22;71452;52.562;5.642;2024-01-10T05:39:17;-2.90;63.00
81951;DHT22;71452;52.562;5.642;2024-01-10T05:41:46;-2.90;63.00
81951;DHT22;71452;52.562;5.642;2024-01-10T05:44:16;-2.90;62.90
81951;DHT22;71452;52.562;5.642;2024-01-10T05:46:48;-2.90;62.80
81951;DHT22;71452;52.562;5.642;2024-01-10T05:49:18;-2.90;62.70
81951;DHT22;71452;52.562;5.642;2024-01-10T05:51:48;-2.90;62.60
81951;DHT22;71452;52.562;5.642;2024-01-10T05:54:17;-2.90;62.60
81951;DHT22;71452;52.562;5.642;2024-01-10T05:56:46;-2.90;62.60
81951;DHT22;71452;52.562;5.642;2024-01-10T05:59:15;-2.90;62.70
81951;DHT22;71452;52.562;5.642;2024-01-10T06:01:45;-2.90;62.70
81951;DHT22;71452;52.562;5.642;2024-01-10T06:04:16;-2.90;62.70
81951;DHT22;71452;52.562;5.642;2024-01-10T06:06:46;-2.80;62.50
81951;DHT22;71452;52.562;5.642;2024-01-10T06:09:15;-2.90;62.50
81951;DHT22;71452;52.562;5.642;2024-01-10T06:11:48;-2.90;62.70
81951;DHT22;71452;52.562;5.642;2024-01-10T06:14:17;-2.80;62.60
81951;DHT22;71452;52.562;5.642;2024-01-10T06:16:46;-2.80;62.50
81951;DHT22;71452;52.562;5.642;2024-01-10T06:19:18;-2.80;62.50
81951;DHT22;71452;52.562;5.642;2024-01-10T06:21:47;-2.80;62.50
81951;DHT22;71452;52.562;5.642;2024-01-10T06:24:18;-2.80;62.60
81951;DHT22;71452;52.562;5.642;2024-01-10T06:26:47;-2.80;62.30
81951;DHT22;71452;52.562;5.642;2024-01-10T06:29:16;-2.60;62.30
81951;DHT22;71452;52.562;5.642;2024-01-10T06:31:46;-2.70;62.20
81951;DHT22;71452;52.562;5.642;2024-01-10T06:34:17;-2.70;62.20
81951;DHT22;71452;52.562;5.642;2024-01-10T06:36:46;-2.70;62.20
81951;DHT22;71452;52.562;5.642;2024-01-10T06:39:16;-2.80;62.10
81951;DHT22;71452;52.562;5.642;2024-01-10T06:41:47;-2.80;62.20
81951;DHT22;71452;52.562;5.642;2024-01-10T06:44:17;-2.90;62.40
81951;DHT22;71452;52.562;5.642;2024-01-10T06:46:46;-2.80;62.30
81951;DHT22;71452;52.562;5.642;2024-01-10T06:49:18;-2.90;62.20
81951;DHT22;71452;52.562;5.642;2024-01-10T06:51:47;-2.80;62.20
81951;DHT22;71452;52.562;5.642;2024-01-10T06:54:16;-2.80;62.20
81951;DHT22;71452;52.562;5.642;2024-01-10T06:56:45;-2.80;62.30
81951;DHT22;71452;52.562;5.642;2024-01-10T06:59:14;-2.80;62.60
81951;DHT22;71452;52.562;5.642;2024-01-10T07:01:43;-2.80;62.50
81951;DHT22;71452;52.562;5.642;2024-01-10T07:04:13;-2.70;62.40
81951;DHT22;71452;52.562;5.642;2024-01-10T07:06:46;-2.80;62.30
81951;DHT22;71452;52.562;5.642;2024-01-10T07:09:15;-2.80;62.00
81951;DHT22;71452;52.562;5.642;2024-01-10T07:11:46;-2.80;62.00
81951;DHT22;71452;52.562;5.642;2024-01-10T07:14:16;-2.80;61.60
81951;DHT22;71452;52.562;5.642;2024-01-10T07:16:46;-2.90;61.70
81951;DHT22;71452;52.562;5.642;2024-01-10T07:19:15;-2.80;61.70
81951;DHT22;71452;52.562;5.642;2024-01-10T07:21:46;-2.80;61.60
81951;DHT22;71452;52.562;5.642;2024-01-10T07:24:16;-2.90;61.50
81951;DHT22;71452;52.562;5.642;2024-01-10T07:26:45;-2.90;61.60
81951;DHT22;71452;52.562;5.642;2024-01-10T07:29:14;-2.90;61.70
81951;DHT22;71452;52.562;5.642;2024-01-10T07:31:43;-2.80;61.60
81951;DHT22;71452;52.562;5.642;2024-01-10T07:34:13;-2.80;61.80
81951;DHT22;71452;52.562;5.642;2024-01-10T07:36:42;-2.80;61.90
81951;DHT22;71452;52.562;5.642;2024-01-10T07:39:14;-2.80;61.90
81951;DHT22;71452;52.562;5.642;2024-01-10T07:41:44;-2.80;62.00
81951;DHT22;71452;52.562;5.642;2024-01-10T07:44:16;-2.90;62.30
81951;DHT22;71452;52.562;5.642;2024-01-10T07:46:45;-2.80;62.40
81951;DHT22;71452;52.562;5.642;2024-01-10T07:49:14;-2.80;62.20
81951;DHT22;71452;52.562;5.642;2024-01-10T07:51:44;-2.80;62.10
81951;DHT22;71452;52.562;5.642;2024-01-10T07:54:16;-2.80;61.60
81951;DHT22;71452;52.562;5.642;2024-01-10T07:56:45;-2.80;61.60
81951;DHT22;71452;52.562;5.642;2024-01-10T07:59:14;-2.70;61.40
81951;DHT22;71452;52.562;5.642;2024-01-10T08:01:44;-2.70;61.30
81951;DHT22;71452;52.562;5.642;2024-01-10T08:04:22;-2.70;61.20
81951;DHT22;71452;52.562;5.642;2024-01-10T08:06:52;-2.70;61.10
81951;DHT22;71452;52.562;5.642;2024-01-10T08:09:24;-2.60;61.20
81951;DHT22;71452;52.562;5.642;2024-01-10T08:11:53;-2.60;61.10
81951;DHT22;71452;52.562;5.642;2024-01-10T08:14:22;-2.50;60.80
81951;DHT22;71452;52.562;5.642;2024-01-10T08:16:51;-2.50;60.70
81951;DHT22;71452;52.562;5.642;2024-01-10T08:19:24;-2.50;60.70
81951;DHT22;71452;52.562;5.642;2024-01-10T08:21:54;-2.50;60.80
81951;DHT22;71452;52.562;5.642;2024-01-10T08:24:26;-2.50;60.70
81951;DHT22;71452;52.562;5.642;2024-01-10T08:26:55;-2.50;60.70
81951;DHT22;71452;52.562;5.642;2024-01-10T08:29:24;-2.40;60.40
81951;DHT22;71452;52.562;5.642;2024-01-10T08:31:57;-2.40;60.40
81951;DHT22;71452;52.562;5.642;2024-01-10T08:34:26;-2.40;60.40
81951;DHT22;71452;52.562;5.642;2024-01-10T08:36:55;-2.30;60.60
81951;DHT22;71452;52.562;5.642;2024-01-10T08:39:27;-2.30;60.80
81951;DHT22;71452;52.562;5.642;2024-01-10T08:41:57;-2.30;60.50
81951;DHT22;71452;52.562;5.642;2024-01-10T08:44:26;-2.20;60.20
81951;DHT22;71452;52.562;5.642;2024-01-10T08:46:55;-2.10;60.30
81951;DHT22;71452;52.562;5.642;2024-01-10T08:49:24;-2.10;60.20
81951;DHT22;71452;52.562;5.642;2024-01-10T08:51:53;-2.10;59.90
81951;DHT22;71452;52.562;5.642;2024-01-10T08:54:23;-2.10;60.10
81951;DHT22;71452;52.562;5.642;2024-01-10T08:56:55;-2.10;60.10
81951;DHT22;71452;52.562;5.642;2024-01-10T08:59:25;-2.10;60.20
81951;DHT22;71452;52.562;5.642;2024-01-10T09:01:54;-1.90;59.70
81951;DHT22;71452;52.562;5.642;2024-01-10T09:04:23;-1.90;59.40
81951;DHT22;71452;52.562;5.642;2024-01-10T09:06:53;-1.90;59.40
81951;DHT22;71452;52.562;5.642;2024-01-10T09:12:39;-1.80;58.70
81951;DHT22;71452;52.562;5.642;2024-01-10T09:15:12;-1.80;58.80
81951;DHT22;71452;52.562;5.642;2024-01-10T09:17:42;-1.80;58.00
81951;DHT22;71452;52.562;5.642;2024-01-10T09:20:09;-1.70;57.60
81951;DHT22;71452;52.562;5.642;2024-01-10T09:22:38;-1.80;57.30
81951;DHT22;71452;52.562;5.642;2024-01-10T09:25:08;-1.80;57.30
81951;DHT22;71452;52.562;5.642;2024-01-10T09:27:41;-1.70;57.50
81951;DHT22;71452;52.562;5.642;2024-01-10T09:30:12;-1.70;57.00
81951;DHT22;71452;52.562;5.642;2024-01-10T09:32:42;-1.70;57.10
81951;DHT22;71452;52.562;5.642;2024-01-10T09:35:12;-1.70;57.30
81951;DHT22;71452;52.562;5.642;2024-01-10T09:37:41;-1.60;57.00
81951;DHT22;71452;52.562;5.642;2024-01-10T09:40:14;-1.60;56.80
81951;DHT22;71452;52.562;5.642;2024-01-10T09:42:50;-1.60;57.00
81951;DHT22;71452;52.562;5.642;2024-01-10T09:45:21;-1.60;57.00
81951;DHT22;71452;52.562;5.642;2024-01-10T09:47:54;-1.50;57.10
81951;DHT22;71452;52.562;5.642;2024-01-10T09:50:24;-1.50;56.80
81951;DHT22;71452;52.562;5.642;2024-01-10T09:53:05;-1.50;56.70
81951;DHT22;71452;52.562;5.642;2024-01-10T09:55:36;-1.40;56.90
81951;DHT22;71452;52.562;5.642;2024-01-10T09:58:08;-1.30;57.10
81951;DHT22;71452;52.562;5.642;2024-01-10T10:00:39;-1.30;56.70
81951;DHT22;71452;52.562;5.642;2024-01-10T10:03:10;-1.30;57.00
81951;DHT22;71452;52.562;5.642;2024-01-10T10:05:39;-1.30;56.80
81951;DHT22;71452;52.562;5.642;2024-01-10T10:08:10;-1.10;56.50
81951;DHT22;71452;52.562;5.642;2024-01-10T10:10:41;-1.10;56.40
81951;DHT22;71452;52.562;5.642;2024-01-10T10:13:24;-1.10;56.20
81951;DHT22;71452;52.562;5.642;2024-01-10T10:16:00;-1.10;55.60
81951;DHT22;71452;52.562;5.642;2024-01-10T10:18:30;-1.10;55.50
81951;DHT22;71452;52.562;5.642;2024-01-10T10:21:10;-1.10;55.70
81951;DHT22;71452;52.562;5.642;2024-01-10T10:23:40;-1.10;55.70
81951;DHT22;71452;52.562;5.642;2024-01-10T10:26:16;-1.10;55.40
81951;DHT22;71452;52.562;5.642;2024-01-10T10:28:52;-1.00;55.20
81951;DHT22;71452;52.562;5.642;2024-01-10T10:31:25;-1.00;55.50
81951;DHT22;71452;52.562;5.642;2024-01-10T10:33:55;-0.90;55.00
81951;DHT22;71452;52.562;5.642;2024-01-10T10:36:24;-0.80;54.80
81951;DHT22;71452;52.562;5.642;2024-01-10T10:38:53;-0.70;55.00
81951;DHT22;71452;52.562;5.642;2024-01-10T10:41:23;-0.70;55.10
81951;DHT22;71452;52.562;5.642;2024-01-10T10:43:57;-0.60;54.90
81951;DHT22;71452;52.562;5.642;2024-01-10T10:46:27;-0.60;55.00
81951;DHT22;71452;52.562;5.642;2024-01-10T10:48:59;-0.60;54.10
81951;DHT22;71452;52.562;5.642;2024-01-10T10:51:37;-0.50;54.70
81951;DHT22;71452;52.562;5.642;2024-01-10T10:54:07;-0.50;55.10
81951;DHT22;71452;52.562;5.642;2024-01-10T10:56:38;-0.50;54.90
81951;DHT22;71452;52.562;5.642;2024-01-10T10:59:12;-0.40;54.60
81951;DHT22;71452;52.562;5.642;2024-01-10T11:01:43;-0.30;54.00
81951;DHT22;71452;52.562;5.642;2024-01-10T11:04:13;-0.30;53.50
81951;DHT22;71452;52.562;5.642;2024-01-10T11:06:43;-0.20;53.60
81951;DHT22;71452;52.562;5.642;2024-01-10T11:09:14;-0.20;53.50
81951;DHT22;71452;52.562;5.642;2024-01-10T11:12:01;-0.10;53.50
81951;DHT22;71452;52.562;5.642;2024-01-10T11:14:47;-0.10;53.50
81951;DHT22;71452;52.562;5.642;2024-01-10T11:17:43;-0.10;53.30
81951;DHT22;71452;52.562;5.642;2024-01-10T11:20:32;-0.10;53.10
81951;DHT22;71452;52.562;5.642;2024-01-10T11:23:17;0.00;52.90
81951;DHT22;71452;52.562;5.642;2024-01-10T11:25:49;0.00;53.00
81951;DHT22;71452;52.562;5.642;2024-01-10T11:28:20;0.00;52.80
81951;DHT22;71452;52.562;5.642;2024-01-10T11:30:53;0.00;52.80
81951;DHT22;71452;52.562;5.642;2024-01-10T11:33:24;0.00;52.60
81951;DHT22;71452;52.562;5.642;2024-01-10T11:36:06;0.00;52.80
81951;DHT22;71452;52.562;5.642;2024-01-10T11:41:29;0.20;53.00
81951;DHT22;71452;52.562;5.642;2024-01-10T11:44:29;0.20;52.50
81951;DHT22;71452;52.562;5.642;2024-01-10T11:47:04;0.30;52.40
81951;DHT22;71452;52.562;5.642;2024-01-10T11:49:33;0.30;52.50
81951;DHT22;71452;52.562;5.642;2024-01-10T11:52:02;0.30;52.60
81951;DHT22;71452;52.562;5.642;2024-01-10T11:54:50;0.30;52.10
81951;DHT22;71452;52.562;5.642;2024-01-10T11:57:20;0.40;52.70
81951;DHT22;71452;52.562;5.642;2024-01-10T11:59:49;0.40;52.60
81951;DHT22;71452;52.562;5.642;2024-01-10T12:02:22;0.50;52.40
81951;DHT22;71452;52.562;5.642;2024-01-10T12:04:53;0.60;51.90
81951;DHT22;71452;52.562;5.642;2024-01-10T12:07:22;0.60;51.40
81951;DHT22;71452;52.562;5.642;2024-01-10T12:09:51;0.60;51.40
81951;DHT22;71452;52.562;5.642;2024-01-10T12:12:21;0.60;51.20
81951;DHT22;71452;52.562;5.642;2024-01-10T12:14:50;0.70;51.70
81951;DHT22;71452;52.562;5.642;2024-01-10T12:17:26;0.70;51.60
81951;DHT22;71452;52.562;5.642;2024-01-10T12:19:55;0.80;51.30
81951;DHT22;71452;52.562;5.642;2024-01-10T12:22:25;0.80;51.10
81951;DHT22;71452;52.562;5.642;2024-01-10T12:24:54;0.80;51.10
81951;DHT22;71452;52.562;5.642;2024-01-10T12:27:23;0.80;51.30
81951;DHT22;71452;52.562;5.642;2024-01-10T12:29:52;0.80;51.30
81951;DHT22;71452;52.562;5.642;2024-01-10T12:32:25;0.90;50.80
81951;DHT22;71452;52.562;5.642;2024-01-10T12:34:59;1.00;50.70
81951;DHT22;71452;52.562;5.642;2024-01-10T12:37:28;1.00;51.20
81951;DHT22;71452;52.562;5.642;2024-01-10T12:39:58;1.00;50.80
81951;DHT22;71452;52.562;5.642;2024-01-10T12:42:27;1.00;50.70
81951;DHT22;71452;52.562;5.642;2024-01-10T12:44:56;1.00;50.50
81951;DHT22;71452;52.562;5.642;2024-01-10T12:47:29;1.00;50.80
81951;DHT22;71452;52.562;5.642;2024-01-10T12:49:58;1.00;50.70
81951;DHT22;71452;52.562;5.642;2024-01-10T12:52:27;1.00;50.50
81951;DHT22;71452;52.562;5.642;2024-01-10T12:54:56;1.10;50.00
81951;DHT22;71452;52.562;5.642;2024-01-10T12:57:25;1.10;50.50
81951;DHT22;71452;52.562;5.642;2024-01-10T12:59:54;1.20;50.60
81951;DHT22;71452;52.562;5.642;2024-01-10T13:02:23;1.10;50.70
81951;DHT22;71452;52.562;5.642;2024-01-10T13:04:55;1.10;50.60
81951;DHT22;71452;52.562;5.642;2024-01-10T13:07:24;1.10;50.40
81951;DHT22;71452;52.562;5.642;2024-01-10T13:09:57;1.20;50.50
81951;DHT22;71452;52.562;5.642;2024-01-10T13:12:26;1.20;50.30
81951;DHT22;71452;52.562;5.642;2024-01-10T13:14:56;1.30;49.60
81951;DHT22;71452;52.562;5.642;2024-01-10T13:17:25;1.30;49.50
81951;DHT22;71452;52.562;5.642;2024-01-10T13:19:57;1.20;49.80
81951;DHT22;71452;52.562;5.642;2024-01-10T13:22:26;1.30;49.60
81951;DHT22;71452;52.562;5.642;2024-01-10T13:24:56;1.40;49.70
81951;DHT22;71452;52.562;5.642;2024-01-10T13:27:25;1.30;49.70
81951;DHT22;71452;52.562;5.642;2024-01-10T13:29:54;1.40;49.70
81951;DHT22;71452;52.562;5.642;2024-01-10T13:32:23;1.40;49.30
81951;DHT22;71452;52.562;5.642;2024-01-10T13:34:52;1.40;49.50
81951;DHT22;71452;52.562;5.642;2024-01-10T13:37:24;1.40;49.70
81951;DHT22;71452;52.562;5.642;2024-01-10T13:39:55;1.40;49.50
81951;DHT22;71452;52.562;5.642;2024-01-10T13:42:25;1.40;49.50
81951;DHT22;71452;52.562;5.642;2024-01-10T13:44:54;1.40;49.40
81951;DHT22;71452;52.562;5.642;2024-01-10T13:47:23;1.50;49.40
81951;DHT22;71452;52.562;5.642;2024-01-10T13:49:52;1.50;49.60
81951;DHT22;71452;52.562;5.642;2024-01-10T13:52:24;1.40;49.40
81951;DHT22;71452;52.562;5.642;2024-01-10T13:54:53;1.40;49.20
81951;DHT22;71452;52.562;5.642;2024-01-10T13:57:23;1.40;49.10
81951;DHT22;71452;52.562;5.642;2024-01-10T13:59:52;1.40;49.30
81951;DHT22;71452;52.562;5.642;2024-01-10T14:02:21;1.50;49.30
81951;DHT22;71452;52.562;5.642;2024-01-10T14:04:51;1.50;49.50
81951;DHT22;71452;52.562;5.642;2024-01-10T14:07:21;1.60;49.90
81951;DHT22;71452;52.562;5.642;2024-01-10T14:09:52;1.60;49.70
81951;DHT22;71452;52.562;5.642;2024-01-10T14:12:22;1.60;49.70
81951;DHT22;71452;52.562;5.642;2024-01-10T14:14:51;1.60;49.90
81951;DHT22;71452;52.562;5.642;2024-01-10T14:17:21;1.60;50.00
81951;DHT22;71452;52.562;5.642;2024-01-10T14:19:51;1.60;50.00
81951;DHT22;71452;52.562;5.642;2024-01-10T14:22:20;1.50;50.00
81951;DHT22;71452;52.562;5.642;2024-01-10T14:24:52;1.60;50.40
81951;DHT22;71452;52.562;5.642;2024-01-10T14:27:22;1.60;50.20
81951;DHT22;71452;52.562;5.642;2024-01-10T14:29:51;1.60;50.40
81951;DHT22;71452;52.562;5.642;2024-01-10T14:32:20;1.50;50.50
81951;DHT22;71452;52.562;5.642;2024-01-10T14:34:50;1.40;50.70
81951;DHT22;71452;52.562;5.642;2024-01-10T14:37:19;1.40;50.50
81951;DHT22;71452;52.562;5.642;2024-01-10T14:39:48;1.40;50.50
81951;DHT22;71452;52.562;5.642;2024-01-10T14:42:20;1.40;50.30
81951;DHT22;71452;52.562;5.642;2024-01-10T14:44:49;1.40;50.60
81951;DHT22;71452;52.562;5.642;2024-01-10T14:47:18;1.30;50.90
81951;DHT22;71452;52.562;5.642;2024-01-10T14:49:48;1.40;50.90
81951;DHT22;71452;52.562;5.642;2024-01-10T14:52:18;1.40;51.10
81951;DHT22;71452;52.562;5.642;2024-01-10T14:54:47;1.40;51.10
81951;DHT22;71452;52.562;5.642;2024-01-10T14:57:16;1.30;51.20
81951;DHT22;71452;52.562;5.642;2024-01-10T14:59:49;1.30;51.10
81951;DHT22;71452;52.562;5.642;2024-01-10T15:02:18;1.20;50.80
81951;DHT22;71452;52.562;5.642;2024-01-10T15:04:48;1.20;51.10
81951;DHT22;71452;52.562;5.642;2024-01-10T15:07:17;1.10;51.20
81951;DHT22;71452;52.562;5.642;2024-01-10T15:09:47;1.10;51.40
81951;DHT22;71452;52.562;5.642;2024-01-10T15:12:16;1.10;51.40
81951;DHT22;71452;52.562;5.642;2024-01-10T15:14:45;1.10;51.50
81951;DHT22;71452;52.562;5.642;2024-01-10T15:17:17;1.10;51.10
81951;DHT22;71452;52.562;5.642;2024-01-10T15:19:46;1.00;51.40
81951;DHT22;71452;52.562;5.642;2024-01-10T15:22:15;1.00;51.50
81951;DHT22;71452;52.562;5.642;2024-01-10T15:24:44;1.00;51.50
81951;DHT22;71452;52.562;5.642;2024-01-10T15:27:15;0.90;51.70
81951;DHT22;71452;52.562;5.642;2024-01-10T15:29:44;0.90;52.20
81951;DHT22;71452;52.562;5.642;2024-01-10T15:32:16;0.80;52.60
81951;DHT22;71452;52.562;5.642;2024-01-10T15:34:45;0.80;52.80
81951;DHT22;71452;52.562;5.642;2024-01-10T15:37:15;0.80;53.10
81951;DHT22;71452;52.562;5.642;2024-01-10T15:39:45;0.70;53.30
81951;DHT22;71452;52.562;5.642;2024-01-10T15:42:14;0.60;53.70
81951;DHT22;71452;52.562;5.642;2024-01-10T15:44:44;0.60;53.90
81951;DHT22;71452;52.562;5.642;2024-01-10T15:47:16;0.60;54.30
81951;DHT22;71452;52.562;5.642;2024-01-10T15:49:45;0.60;54.30
81951;DHT22;71452;52.562;5.642;2024-01-10T15:52:15;0.50;54.30
81951;DHT22;71452;52.562;5.642;2024-01-10T15:54:45;0.50;54.60
81951;DHT22;71452;52.562;5.642;2024-01-10T15:57:19;0.50;54.60
81951;DHT22;71452;52.562;5.642;2024-01-10T15:59:48;0.50;54.70
81951;DHT22;71452;52.562;5.642;2024-01-10T16:02:20;0.40;54.60